sensor_id;sensor_type;location;lat;lon;timestamp;temperature;humidity
17128;DHT22;8679;50.842;4.322;2022-09-17T00:01:51;10.80;99.90
17128;DHT22;8679;50.842;4.322;2022-09-17T00:04:17;10.90;99.90
17128;DHT22;8679;50.842;4.322;2022-09-17T00:06:43;10.90;99.90
17128;DHT22;8679;50.842;4.322;2022-09-17T00:09:09;10.90;99.90
17128;DHT22;8679;50.842;4.322;2022-09-17T00:11:38;10.90;99.90
17128;DHT22;8679;50.842;4.322;2022-09-17T00:14:05;10.80;99.90
17128;DHT22;8679;50.842;4.322;2022-09-17T00:16:37;10.80;99.90
17128;DHT22;8679;50.842;4.322;2022-09-17T00:19:04;10.90;99.90
17128;DHT22;8679;50.842;4.322;2022-09-17T00:21:30;10.90;99.90
17128;DHT22;8679;50.842;4.322;2022-09-17T00:23:58;10.80;99.90
17128;DHT22;8679;50.842;4.322;2022-09-17T00:26:25;10.90;99.90
17128;DHT22;8679;50.842;4.322;2022-09-17T00:28:52;10.90;99.90
17128;DHT22;8679;50.842;4.322;2022-09-17T00:31:19;10.90;99.90
17128;DHT22;8679;50.842;4.322;2022-09-17T00:33:44;10.90;99.90
17128;DHT22;8679;50.842;4.322;2022-09-17T00:36:10;10.90;99.90
17128;DHT22;8679;50.842;4.322;2022-09-17T00:38:36;10.80;99.90
17128;DHT22;8679;50.842;4.322;2022-09-17T00:41:02;10.80;99.90
17128;DHT22;8679;50.842;4.322;2022-09-17T00:43:44;10.80;99.90
17128;DHT22;8679;50.842;4.322;2022-09-17T00:49:16;10.80;99.90
17128;DHT22;8679;50.842;4.322;2022-09-17T00:51:51;10.80;99.90
17128;DHT22;8679;50.842;4.322;2022-09-17T00:54:18;10.80;99.90
17128;DHT22;8679;50.842;4.322;2022-09-17T00:56:46;10.80;99.90
17128;DHT22;8679;50.842;4.322;2022-09-17T00:59:13;10.80;99.90
17128;DHT22;8679;50.842;4.322;2022-09-17T01:01:39;10.80;99.90
17128;DHT22;8679;50.842;4.322;2022-09-17T01:04:05;10.80;99.90
17128;DHT22;8679;50.842;4.322;2022-09-17T01:06:47;10.70;99.90
17128;DHT22;8679;50.842;4.322;2022-09-17T01:09:24;10.80;99.90
17128;DHT22;8679;50.842;4.322;2022-09-17T01:15:07;10.70;99.90
17128;DHT22;8679;50.842;4.322;2022-09-17T01:31:38;10.90;99.90
17128;DHT22;8679;50.842;4.322;2022-09-17T01:34:20;10.90;99.90
17128;DHT22;8679;50.842;4.322;2022-09-17T01:37:11;10.90;99.90
17128;DHT22;8679;50.842;4.322;2022-09-17T01:39:47;10.90;99.90
17128;DHT22;8679;50.842;4.322;2022-09-17T01:50:38;11.00;99.90
17128;DHT22;8679;50.842;4.322;2022-09-17T01:53:06;11.00;99.90
17128;DHT22;8679;50.842;4.322;2022-09-17T01:55:37;11.00;99.90
17128;DHT22;8679;50.842;4.322;2022-09-17T01:58:24;11.00;99.90
17128;DHT22;8679;50.842;4.322;2022-09-17T02:00:55;11.00;99.90
17128;DHT22;8679;50.842;4.322;2022-09-17T02:03:31;11.00;99.90
17128;DHT22;8679;50.842;4.322;2022-09-17T02:06:09;11.00;99.90
17128;DHT22;8679;50.842;4.322;2022-09-17T02:08:50;11.00;99.90
17128;DHT22;8679;50.842;4.322;2022-09-17T02:11:18;11.10;99.90
17128;DHT22;8679;50.842;4.322;2022-09-17T02:13:46;11.10;99.90
17128;DHT22;8679;50.842;4.322;2022-09-17T02:16:18;11.10;99.90
17128;DHT22;8679;50.842;4.322;2022-09-17T02:19:09;11.10;99.90
17128;DHT22;8679;50.842;4.322;2022-09-17T02:24:40;11.10;99.90
17128;DHT22;8679;50.842;4.322;2022-09-17T02:29:45;11.10;99.90
17128;DHT22;8679;50.842;4.322;2022-09-17T02:32:12;11.20;99.90
17128;DHT22;8679;50.842;4.322;2022-09-17T02:34:38;11.10;99.90
17128;DHT22;8679;50.842;4.322;2022-09-17T02:37:05;11.10;99.90
17128;DHT22;8679;50.842;4.322;2022-09-17T02:39:31;11.20;99.90
17128;DHT22;8679;50.842;4.322;2022-09-17T02:56:48;11.00;99.90
17128;DHT22;8679;50.842;4.322;2022-09-17T02:59:43;10.90;99.90
17128;DHT22;8679;50.842;4.322;2022-09-17T03:02:23;10.90;99.90
17128;DHT22;8679;50.842;4.322;2022-09-17T03:04:50;10.90;99.90
17128;DHT22;8679;50.842;4.322;2022-09-17T03:07:18;10.90;99.90
17128;DHT22;8679;50.842;4.322;2022-09-17T03:09:45;10.90;99.90
17128;DHT22;8679;50.842;4.322;2022-09-17T03:12:10;10.80;99.90
17128;DHT22;8679;50.842;4.322;2022-09-17T03:14:36;10.80;99.90
17128;DHT22;8679;50.842;4.322;2022-09-17T03:17:03;10.80;99.90
17128;DHT22;8679;50.842;4.322;2022-09-17T03:19:28;10.80;99.90
17128;DHT22;8679;50.842;4.322;2022-09-17T03:21:54;10.70;99.90
17128;DHT22;8679;50.842;4.322;2022-09-17T03:24:20;10.70;99.90
17128;DHT22;8679;50.842;4.322;2022-09-17T03:26:46;10.70;99.90
17128;DHT22;8679;50.842;4.322;2022-09-17T03:29:15;10.60;99.90
17128;DHT22;8679;50.842;4.322;2022-09-17T03:31:41;10.60;99.90
17128;DHT22;8679;50.842;4.322;2022-09-17T03:34:07;10.50;99.90
17128;DHT22;8679;50.842;4.322;2022-09-17T03:36:33;10.50;99.90
17128;DHT22;8679;50.842;4.322;2022-09-17T03:38:59;10.50;99.90
17128;DHT22;8679;50.842;4.322;2022-09-17T03:41:25;10.50;99.90
17128;DHT22;8679;50.842;4.322;2022-09-17T03:43:51;10.40;99.90
17128;DHT22;8679;50.842;4.322;2022-09-17T03:46:17;10.40;99.90
17128;DHT22;8679;50.842;4.322;2022-09-17T03:48:42;10.50;99.90
17128;DHT22;8679;50.842;4.322;2022-09-17T03:51:08;10.40;99.90
17128;DHT22;8679;50.842;4.322;2022-09-17T03:53:34;10.30;99.90
17128;DHT22;8679;50.842;4.322;2022-09-17T03:56:01;10.30;99.90
17128;DHT22;8679;50.842;4.322;2022-09-17T03:58:28;10.30;99.90
17128;DHT22;8679;50.842;4.322;2022-09-17T04:00:54;10.30;99.90
17128;DHT22;8679;50.842;4.322;2022-09-17T04:03:26;10.30;99.90
17128;DHT22;8679;50.842;4.322;2022-09-17T04:05:52;10.30;99.90
17128;DHT22;8679;50.842;4.322;2022-09-17T04:08:17;10.30;99.90
17128;DHT22;8679;50.842;4.322;2022-09-17T04:10:44;10.30;99.90
17128;DHT22;8679;50.842;4.322;2022-09-17T04:13:10;10.30;99.90
17128;DHT22;8679;50.842;4.322;2022-09-17T04:15:36;10.30;99.90
17128;DHT22;8679;50.842;4.322;2022-09-17T04:18:02;10.30;99.90
17128;DHT22;8679;50.842;4.322;2022-09-17T04:20:28;10.30;99.90
17128;DHT22;8679;50.842;4.322;2022-09-17T04:22:54;10.20;99.90
17128;DHT22;8679;50.842;4.322;2022-09-17T04:25:19;10.20;99.90
17128;DHT22;8679;50.842;4.322;2022-09-17T04:27:45;10.30;99.90
17128;DHT22;8679;50.842;4.322;2022-09-17T04:30:12;10.20;99.90
17128;DHT22;8679;50.842;4.322;2022-09-17T04:32:38;10.20;99.90
17128;DHT22;8679;50.842;4.322;2022-09-17T04:35:04;10.30;99.90
17128;DHT22;8679;50.842;4.322;2022-09-17T04:37:30;10.30;99.90
17128;DHT22;8679;50.842;4.322;2022-09-17T04:39:56;10.30;99.90
17128;DHT22;8679;50.842;4.322;2022-09-17T04:42:21;10.20;99.90
17128;DHT22;8679;50.842;4.322;2022-09-17T04:44:47;10.20;99.90
17128;DHT22;8679;50.842;4.322;2022-09-17T04:47:13;10.20;99.90
17128;DHT22;8679;50.842;4.322;2022-09-17T04:49:38;10.20;99.90
17128;DHT22;8679;50.842;4.322;2022-09-17T04:52:04;10.20;99.90
17128;DHT22;8679;50.842;4.322;2022-09-17T04:54:30;10.30;99.90
17128;DHT22;8679;50.842;4.322;2022-09-17T04:56:55;10.30;99.90
17128;DHT22;8679;50.842;4.322;2022-09-17T04:59:21;10.20;99.90
17128;DHT22;8679;50.842;4.322;2022-09-17T05:01:47;10.30;99.90
17128;DHT22;8679;50.842;4.322;2022-09-17T05:04:13;10.30;99.90
17128;DHT22;8679;50.842;4.322;2022-09-17T05:06:39;10.30;99.90
17128;DHT22;8679;50.842;4.322;2022-09-17T05:09:05;10.40;99.90
17128;DHT22;8679;50.842;4.322;2022-09-17T05:11:30;10.40;99.90
17128;DHT22;8679;50.842;4.322;2022-09-17T05:13:56;10.40;99.90
17128;DHT22;8679;50.842;4.322;2022-09-17T05:16:21;10.40;99.90
17128;DHT22;8679;50.842;4.322;2022-09-17T05:18:47;10.50;99.90
17128;DHT22;8679;50.842;4.322;2022-09-17T05:21:14;10.50;99.90
17128;DHT22;8679;50.842;4.322;2022-09-17T05:23:39;10.50;99.90
17128;DHT22;8679;50.842;4.322;2022-09-17T05:26:05;10.50;99.90
17128;DHT22;8679;50.842;4.322;2022-09-17T05:28:31;10.50;99.90
17128;DHT22;8679;50.842;4.322;2022-09-17T05:31:00;10.50;99.90
17128;DHT22;8679;50.842;4.322;2022-09-17T05:33:26;10.50;99.90
17128;DHT22;8679;50.842;4.322;2022-09-17T05:35:52;10.50;99.90
17128;DHT22;8679;50.842;4.322;2022-09-17T05:38:18;10.50;99.90
17128;DHT22;8679;50.842;4.322;2022-09-17T05:40:44;10.50;99.90
17128;DHT22;8679;50.842;4.322;2022-09-17T05:43:11;10.60;99.90
17128;DHT22;8679;50.842;4.322;2022-09-17T05:45:37;10.60;99.90
17128;DHT22;8679;50.842;4.322;2022-09-17T05:48:07;10.60;99.90
17128;DHT22;8679;50.842;4.322;2022-09-17T05:50:34;10.70;99.90
17128;DHT22;8679;50.842;4.322;2022-09-17T05:53:05;10.60;99.90
17128;DHT22;8679;50.842;4.322;2022-09-17T05:55:32;10.60;99.90
17128;DHT22;8679;50.842;4.322;2022-09-17T05:57:57;10.70;99.90
17128;DHT22;8679;50.842;4.322;2022-09-17T06:00:23;10.60;99.90
17128;DHT22;8679;50.842;4.322;2022-09-17T06:02:56;10.60;99.90
17128;DHT22;8679;50.842;4.322;2022-09-17T06:05:23;10.60;99.90
17128;DHT22;8679;50.842;4.322;2022-09-17T06:07:49;10.70;99.90
17128;DHT22;8679;50.842;4.322;2022-09-17T06:10:15;10.70;99.90
17128;DHT22;8679;50.842;4.322;2022-09-17T06:12:41;10.70;99.90
17128;DHT22;8679;50.842;4.322;2022-09-17T06:15:07;10.70;99.90
17128;DHT22;8679;50.842;4.322;2022-09-17T06:17:34;10.80;99.90
17128;DHT22;8679;50.842;4.322;2022-09-17T06:20:00;10.80;99.90
17128;DHT22;8679;50.842;4.322;2022-09-17T06:22:26;10.80;99.90
17128;DHT22;8679;50.842;4.322;2022-09-17T06:24:52;10.80;99.90
17128;DHT22;8679;50.842;4.322;2022-09-17T06:27:18;10.90;99.90
17128;DHT22;8679;50.842;4.322;2022-09-17T06:29:44;11.00;99.90
17128;DHT22;8679;50.842;4.322;2022-09-17T06:32:09;11.00;99.90
17128;DHT22;8679;50.842;4.322;2022-09-17T06:34:38;11.00;99.90
17128;DHT22;8679;50.842;4.322;2022-09-17T06:37:04;11.00;99.90
17128;DHT22;8679;50.842;4.322;2022-09-17T06:39:30;11.00;99.90
17128;DHT22;8679;50.842;4.322;2022-09-17T06:41:56;11.10;99.90
17128;DHT22;8679;50.842;4.322;2022-09-17T06:44:21;11.20;99.90
17128;DHT22;8679;50.842;4.322;2022-09-17T06:46:50;11.30;99.90
17128;DHT22;8679;50.842;4.322;2022-09-17T06:49:16;11.30;99.90
17128;DHT22;8679;50.842;4.322;2022-09-17T06:51:43;11.30;99.90
17128;DHT22;8679;50.842;4.322;2022-09-17T06:54:08;11.30;99.90
17128;DHT22;8679;50.842;4.322;2022-09-17T06:56:34;11.30;99.90
17128;DHT22;8679;50.842;4.322;2022-09-17T06:59:00;11.30;99.90
17128;DHT22;8679;50.842;4.322;2022-09-17T07:01:26;11.30;99.90
17128;DHT22;8679;50.842;4.322;2022-09-17T07:03:51;11.30;99.90
17128;DHT22;8679;50.842;4.322;2022-09-17T07:06:17;11.40;99.90
17128;DHT22;8679;50.842;4.322;2022-09-17T07:08:43;11.60;99.90
17128;DHT22;8679;50.842;4.322;2022-09-17T07:11:08;11.60;99.90
17128;DHT22;8679;50.842;4.322;2022-09-17T07:13:34;11.60;99.90
17128;DHT22;8679;50.842;4.322;2022-09-17T07:16:01;11.70;99.90
17128;DHT22;8679;50.842;4.322;2022-09-17T07:18:28;11.70;99.90
17128;DHT22;8679;50.842;4.322;2022-09-17T07:20:58;11.70;99.90
17128;DHT22;8679;50.842;4.322;2022-09-17T07:23:43;11.70;99.90
17128;DHT22;8679;50.842;4.322;2022-09-17T07:26:14;11.70;99.90
17128;DHT22;8679;50.842;4.322;2022-09-17T07:28:41;11.80;99.90
17128;DHT22;8679;50.842;4.322;2022-09-17T07:31:08;11.80;99.90
17128;DHT22;8679;50.842;4.322;2022-09-17T07:33:35;11.80;99.90
17128;DHT22;8679;50.842;4.322;2022-09-17T07:36:04;11.80;99.90
17128;DHT22;8679;50.842;4.322;2022-09-17T07:38:30;11.80;99.90
17128;DHT22;8679;50.842;4.322;2022-09-17T07:41:01;11.90;99.90
17128;DHT22;8679;50.842;4.322;2022-09-17T07:43:29;11.90;99.90
17128;DHT22;8679;50.842;4.322;2022-09-17T07:45:56;11.90;99.90
17128;DHT22;8679;50.842;4.322;2022-09-17T07:48:22;12.00;99.90
17128;DHT22;8679;50.842;4.322;2022-09-17T07:50:48;12.10;99.90
17128;DHT22;8679;50.842;4.322;2022-09-17T07:53:14;12.00;99.90
17128;DHT22;8679;50.842;4.322;2022-09-17T07:55:41;12.20;99.90
17128;DHT22;8679;50.842;4.322;2022-09-17T07:58:07;12.20;99.90
17128;DHT22;8679;50.842;4.322;2022-09-17T08:00:33;12.20;99.90
17128;DHT22;8679;50.842;4.322;2022-09-17T08:02:58;12.20;99.90
17128;DHT22;8679;50.842;4.322;2022-09-17T08:05:25;12.30;99.90
17128;DHT22;8679;50.842;4.322;2022-09-17T08:07:52;12.50;99.90
17128;DHT22;8679;50.842;4.322;2022-09-17T08:10:19;12.60;99.90
17128;DHT22;8679;50.842;4.322;2022-09-17T08:12:52;12.70;99.90
17128;DHT22;8679;50.842;4.322;2022-09-17T08:15:18;12.70;99.90
17128;DHT22;8679;50.842;4.322;2022-09-17T08:17:45;12.60;99.90
17128;DHT22;8679;50.842;4.322;2022-09-17T08:20:14;12.70;99.90
17128;DHT22;8679;50.842;4.322;2022-09-17T08:22:40;12.50;99.90
17128;DHT22;8679;50.842;4.322;2022-09-17T08:25:06;12.60;99.90
17128;DHT22;8679;50.842;4.322;2022-09-17T08:27:34;12.80;99.90
17128;DHT22;8679;50.842;4.322;2022-09-17T08:29:59;12.90;99.90
17128;DHT22;8679;50.842;4.322;2022-09-17T08:32:27;12.90;99.90
17128;DHT22;8679;50.842;4.322;2022-09-17T08:34:53;12.90;99.90
17128;DHT22;8679;50.842;4.322;2022-09-17T08:37:19;13.10;99.90
17128;DHT22;8679;50.842;4.322;2022-09-17T08:39:45;13.20;99.90
17128;DHT22;8679;50.842;4.322;2022-09-17T08:42:22;13.40;99.90
17128;DHT22;8679;50.842;4.322;2022-09-17T08:44:50;13.70;99.90
17128;DHT22;8679;50.842;4.322;2022-09-17T08:47:27;13.80;99.90
17128;DHT22;8679;50.842;4.322;2022-09-17T08:50:00;13.90;99.90
17128;DHT22;8679;50.842;4.322;2022-09-17T09:03:46;13.30;99.90
17128;DHT22;8679;50.842;4.322;2022-09-17T09:06:16;13.30;99.90
17128;DHT22;8679;50.842;4.322;2022-09-17T09:08:49;13.20;99.90
17128;DHT22;8679;50.842;4.322;2022-09-17T09:11:20;13.20;99.90
17128;DHT22;8679;50.842;4.322;2022-09-17T09:16:38;13.50;99.90
17128;DHT22;8679;50.842;4.322;2022-09-17T09:19:25;13.40;99.90
17128;DHT22;8679;50.842;4.322;2022-09-17T09:22:13;13.30;99.90
17128;DHT22;8679;50.842;4.322;2022-09-17T09:27:28;12.90;99.90
17128;DHT22;8679;50.842;4.322;2022-09-17T09:30:12;12.70;99.90
17128;DHT22;8679;50.842;4.322;2022-09-17T09:33:10;12.50;99.90
17128;DHT22;8679;50.842;4.322;2022-09-17T09:35:40;12.40;99.90
17128;DHT22;8679;50.842;4.322;2022-09-17T09:41:24;12.30;99.90
17128;DHT22;8679;50.842;4.322;2022-09-17T09:43:57;12.40;99.90
17128;DHT22;8679;50.842;4.322;2022-09-17T09:57:17;13.10;99.90
17128;DHT22;8679;50.842;4.322;2022-09-17T09:59:46;13.40;99.90
17128;DHT22;8679;50.842;4.322;2022-09-17T10:02:12;13.50;99.90
17128;DHT22;8679;50.842;4.322;2022-09-17T10:04:38;13.80;99.90
17128;DHT22;8679;50.842;4.322;2022-09-17T10:07:09;13.70;99.90
17128;DHT22;8679;50.842;4.322;2022-09-17T10:09:40;13.80;99.90
17128;DHT22;8679;50.842;4.322;2022-09-17T10:14:39;13.70;99.90
17128;DHT22;8679;50.842;4.322;2022-09-17T10:22:34;14.00;99.90
17128;DHT22;8679;50.842;4.322;2022-09-17T10:25:02;13.90;99.90
17128;DHT22;8679;50.842;4.322;2022-09-17T10:27:29;13.90;99.90
17128;DHT22;8679;50.842;4.322;2022-09-17T10:32:33;13.90;99.90
17128;DHT22;8679;50.842;4.322;2022-09-17T10:37:52;13.60;99.90
17128;DHT22;8679;50.842;4.322;2022-09-17T10:42:50;13.80;99.90
17128;DHT22;8679;50.842;4.322;2022-09-17T10:45:38;13.70;99.90
17128;DHT22;8679;50.842;4.322;2022-09-17T10:48:04;13.80;99.90
17128;DHT22;8679;50.842;4.322;2022-09-17T10:50:37;13.90;99.90
17128;DHT22;8679;50.842;4.322;2022-09-17T10:53:06;14.00;99.90
17128;DHT22;8679;50.842;4.322;2022-09-17T10:58:32;13.90;99.90
17128;DHT22;8679;50.842;4.322;2022-09-17T11:14:38;13.90;99.90
17128;DHT22;8679;50.842;4.322;2022-09-17T11:20:24;14.10;99.90
17128;DHT22;8679;50.842;4.322;2022-09-17T11:28:52;14.30;99.90
17128;DHT22;8679;50.842;4.322;2022-09-17T11:34:22;13.90;99.90
17128;DHT22;8679;50.842;4.322;2022-09-17T11:39:46;13.90;99.90
17128;DHT22;8679;50.842;4.322;2022-09-17T11:42:36;14.10;99.90
17128;DHT22;8679;50.842;4.322;2022-09-17T11:45:32;14.10;99.90
17128;DHT22;8679;50.842;4.322;2022-09-17T11:50:45;14.20;99.90
17128;DHT22;8679;50.842;4.322;2022-09-17T11:53:28;14.30;99.90
17128;DHT22;8679;50.842;4.322;2022-09-17T11:56:31;14.30;99.90
17128;DHT22;8679;50.842;4.322;2022-09-17T12:01:53;14.30;99.90
17128;DHT22;8679;50.842;4.322;2022-09-17T12:04:40;14.20;99.90
17128;DHT22;8679;50.842;4.322;2022-09-17T12:09:42;15.00;99.90
17128;DHT22;8679;50.842;4.322;2022-09-17T12:12:16;15.20;99.90
17128;DHT22;8679;50.842;4.322;2022-09-17T12:14:57;15.30;99.90
17128;DHT22;8679;50.842;4.322;2022-09-17T12:17:37;15.20;99.90
17128;DHT22;8679;50.842;4.322;2022-09-17T12:20:16;15.00;99.90
17128;DHT22;8679;50.842;4.322;2022-09-17T12:22:46;15.20;99.90
17128;DHT22;8679;50.842;4.322;2022-09-17T12:25:12;15.70;99.90
17128;DHT22;8679;50.842;4.322;2022-09-17T12:27:59;15.90;99.90
17128;DHT22;8679;50.842;4.322;2022-09-17T12:30:31;16.30;99.90
17128;DHT22;8679;50.842;4.322;2022-09-17T12:38:26;16.10;99.90
17128;DHT22;8679;50.842;4.322;2022-09-17T12:40:58;15.90;99.90
17128;DHT22;8679;50.842;4.322;2022-09-17T12:55:00;15.80;99.90
17128;DHT22;8679;50.842;4.322;2022-09-17T13:00:20;16.00;99.90
17128;DHT22;8679;50.842;4.322;2022-09-17T13:17:42;14.10;99.90
17128;DHT22;8679;50.842;4.322;2022-09-17T13:20:28;14.20;99.90
17128;DHT22;8679;50.842;4.322;2022-09-17T13:22:57;14.30;99.90
17128;DHT22;8679;50.842;4.322;2022-09-17T13:25:23;14.60;99.90
17128;DHT22;8679;50.842;4.322;2022-09-17T13:28:06;15.00;99.90
17128;DHT22;8679;50.842;4.322;2022-09-17T13:30:57;15.20;99.90
17128;DHT22;8679;50.842;4.322;2022-09-17T13:34:42;15.00;99.90
17128;DHT22;8679;50.842;4.322;2022-09-17T13:39:05;14.70;99.90
17128;DHT22;8679;50.842;4.322;2022-09-17T13:41:34;15.20;99.90
17128;DHT22;8679;50.842;4.322;2022-09-17T13:44:03;15.80;99.90
17128;DHT22;8679;50.842;4.322;2022-09-17T13:46:29;16.50;99.90
17128;DHT22;8679;50.842;4.322;2022-09-17T13:49:01;16.70;99.90
17128;DHT22;8679;50.842;4.322;2022-09-17T13:54:04;17.30;99.90
17128;DHT22;8679;50.842;4.322;2022-09-17T13:59:07;17.70;99.90
17128;DHT22;8679;50.842;4.322;2022-09-17T14:02:18;18.00;99.90
17128;DHT22;8679;50.842;4.322;2022-09-17T14:04:49;18.60;99.90
17128;DHT22;8679;50.842;4.322;2022-09-17T14:09:58;18.80;99.90
17128;DHT22;8679;50.842;4.322;2022-09-17T14:17:56;18.90;99.90
17128;DHT22;8679;50.842;4.322;2022-09-17T14:20:24;18.50;99.90
17128;DHT22;8679;50.842;4.322;2022-09-17T14:22:59;18.30;99.90
17128;DHT22;8679;50.842;4.322;2022-09-17T14:25:41;17.80;99.90
17128;DHT22;8679;50.842;4.322;2022-09-17T14:30:56;16.60;99.90
17128;DHT22;8679;50.842;4.322;2022-09-17T14:33:29;15.70;99.90
17128;DHT22;8679;50.842;4.322;2022-09-17T14:36:11;14.90;99.90
17128;DHT22;8679;50.842;4.322;2022-09-17T14:38:52;14.30;99.90
17128;DHT22;8679;50.842;4.322;2022-09-17T14:41:32;14.00;99.90
17128;DHT22;8679;50.842;4.322;2022-09-17T14:44:01;13.60;99.90
17128;DHT22;8679;50.842;4.322;2022-09-17T14:49:34;13.40;99.90
17128;DHT22;8679;50.842;4.322;2022-09-17T14:52:00;13.30;99.90
17128;DHT22;8679;50.842;4.322;2022-09-17T14:54:27;13.30;99.90
17128;DHT22;8679;50.842;4.322;2022-09-17T14:59:46;13.60;99.90
17128;DHT22;8679;50.842;4.322;2022-09-17T15:02:35;14.00;99.90
17128;DHT22;8679;50.842;4.322;2022-09-17T15:07:44;14.70;99.90
17128;DHT22;8679;50.842;4.322;2022-09-17T15:10:16;14.70;99.90
17128;DHT22;8679;50.842;4.322;2022-09-17T15:12:43;14.60;99.90
17128;DHT22;8679;50.842;4.322;2022-09-17T15:15:27;14.40;99.90
17128;DHT22;8679;50.842;4.322;2022-09-17T15:17:53;14.20;99.90
17128;DHT22;8679;50.842;4.322;2022-09-17T15:20:27;14.20;99.90
17128;DHT22;8679;50.842;4.322;2022-09-17T15:23:01;14.30;99.90
17128;DHT22;8679;50.842;4.322;2022-09-17T15:25:32;14.30;99.90
17128;DHT22;8679;50.842;4.322;2022-09-17T15:28:15;14.30;99.90
17128;DHT22;8679;50.842;4.322;2022-09-17T15:30:43;14.20;99.90
17128;DHT22;8679;50.842;4.322;2022-09-17T15:33:11;14.10;99.90
17128;DHT22;8679;50.842;4.322;2022-09-17T15:35:37;14.10;99.90
17128;DHT22;8679;50.842;4.322;2022-09-17T15:38:23;14.10;99.90
17128;DHT22;8679;50.842;4.322;2022-09-17T15:40:50;14.00;99.90
17128;DHT22;8679;50.842;4.322;2022-09-17T15:43:22;13.90;99.90
17128;DHT22;8679;50.842;4.322;2022-09-17T15:45:49;13.80;99.90
17128;DHT22;8679;50.842;4.322;2022-09-17T15:48:42;13.80;99.90
17128;DHT22;8679;50.842;4.322;2022-09-17T15:51:24;13.80;99.90
17128;DHT22;8679;50.842;4.322;2022-09-17T15:54:24;13.80;99.90
17128;DHT22;8679;50.842;4.322;2022-09-17T15:56:41;13.90;99.90
17128;DHT22;8679;50.842;4.322;2022-09-17T15:59:30;13.90;99.90
17128;DHT22;8679;50.842;4.322;2022-09-17T16:01:59;13.80;99.90
17128;DHT22;8679;50.842;4.322;2022-09-17T16:04:31;13.70;99.90
17128;DHT22;8679;50.842;4.322;2022-09-17T16:09:48;13.70;99.90
17128;DHT22;8679;50.842;4.322;2022-09-17T16:12:16;13.70;99.90
17128;DHT22;8679;50.842;4.322;2022-09-17T16:14:47;13.70;99.90
17128;DHT22;8679;50.842;4.322;2022-09-17T16:22:34;13.70;99.90
17128;DHT22;8679;50.842;4.322;2022-09-17T16:25:00;13.70;99.90
17128;DHT22;8679;50.842;4.322;2022-09-17T16:27:29;13.80;99.90
17128;DHT22;8679;50.842;4.322;2022-09-17T16:30:05;13.80;99.90
17128;DHT22;8679;50.842;4.322;2022-09-17T16:32:34;13.80;99.90
17128;DHT22;8679;50.842;4.322;2022-09-17T16:35:00;13.70;99.90
17128;DHT22;8679;50.842;4.322;2022-09-17T16:37:25;13.70;99.90
17128;DHT22;8679;50.842;4.322;2022-09-17T16:39:51;13.70;99.90
17128;DHT22;8679;50.842;4.322;2022-09-17T16:42:17;13.60;99.90
17128;DHT22;8679;50.842;4.322;2022-09-17T16:44:43;13.60;99.90
17128;DHT22;8679;50.842;4.322;2022-09-17T16:47:09;13.60;99.90
17128;DHT22;8679;50.842;4.322;2022-09-17T16:49:34;13.40;99.90
17128;DHT22;8679;50.842;4.322;2022-09-17T16:52:00;13.30;99.90
17128;DHT22;8679;50.842;4.322;2022-09-17T16:54:26;13.20;99.90
17128;DHT22;8679;50.842;4.322;2022-09-17T16:56:51;13.10;99.90
17128;DHT22;8679;50.842;4.322;2022-09-17T16:59:18;13.20;99.90
17128;DHT22;8679;50.842;4.322;2022-09-17T17:01:43;13.10;99.90
17128;DHT22;8679;50.842;4.322;2022-09-17T17:04:09;13.10;99.90
17128;DHT22;8679;50.842;4.322;2022-09-17T17:06:35;13.00;99.90
17128;DHT22;8679;50.842;4.322;2022-09-17T17:09:00;13.00;99.90
17128;DHT22;8679;50.842;4.322;2022-09-17T17:11:26;13.00;99.90
17128;DHT22;8679;50.842;4.322;2022-09-17T17:13:53;12.90;99.90
17128;DHT22;8679;50.842;4.322;2022-09-17T17:16:21;12.80;99.90
17128;DHT22;8679;50.842;4.322;2022-09-17T17:18:48;12.80;99.90
17128;DHT22;8679;50.842;4.322;2022-09-17T17:21:15;12.80;99.90
17128;DHT22;8679;50.842;4.322;2022-09-17T17:23:41;12.80;99.90
17128;DHT22;8679;50.842;4.322;2022-09-17T17:26:08;12.70;99.90
17128;DHT22;8679;50.842;4.322;2022-09-17T17:28:34;12.70;99.90
17128;DHT22;8679;50.842;4.322;2022-09-17T17:31:01;12.60;99.90
17128;DHT22;8679;50.842;4.322;2022-09-17T17:33:27;12.60;99.90
17128;DHT22;8679;50.842;4.322;2022-09-17T17:35:53;12.70;99.90
17128;DHT22;8679;50.842;4.322;2022-09-17T17:38:19;12.60;99.90
17128;DHT22;8679;50.842;4.322;2022-09-17T17:40:45;12.60;99.90
17128;DHT22;8679;50.842;4.322;2022-09-17T17:43:11;12.60;99.90
17128;DHT22;8679;50.842;4.322;2022-09-17T17:45:38;12.60;99.90
17128;DHT22;8679;50.842;4.322;2022-09-17T17:48:04;12.50;99.90
17128;DHT22;8679;50.842;4.322;2022-09-17T17:50:30;12.50;99.90
17128;DHT22;8679;50.842;4.322;2022-09-17T17:52:56;12.50;99.90
17128;DHT22;8679;50.842;4.322;2022-09-17T17:55:22;12.60;99.90
17128;DHT22;8679;50.842;4.322;2022-09-17T17:57:56;12.60;99.90
17128;DHT22;8679;50.842;4.322;2022-09-17T18:00:22;12.50;99.90
17128;DHT22;8679;50.842;4.322;2022-09-17T18:02:49;12.50;99.90
17128;DHT22;8679;50.842;4.322;2022-09-17T18:05:15;12.50;99.90
17128;DHT22;8679;50.842;4.322;2022-09-17T18:07:40;12.40;99.90
17128;DHT22;8679;50.842;4.322;2022-09-17T18:10:06;12.30;99.90
17128;DHT22;8679;50.842;4.322;2022-09-17T18:12:32;12.30;99.90
17128;DHT22;8679;50.842;4.322;2022-09-17T18:14:58;12.30;99.90
17128;DHT22;8679;50.842;4.322;2022-09-17T18:17:23;12.30;99.90
17128;DHT22;8679;50.842;4.322;2022-09-17T18:19:49;12.30;99.90
17128;DHT22;8679;50.842;4.322;2022-09-17T18:22:16;12.30;99.90
17128;DHT22;8679;50.842;4.322;2022-09-17T18:24:42;12.30;99.90
17128;DHT22;8679;50.842;4.322;2022-09-17T18:27:08;12.40;99.90
17128;DHT22;8679;50.842;4.322;2022-09-17T18:29:34;12.40;99.90
17128;DHT22;8679;50.842;4.322;2022-09-17T18:32:00;12.30;99.90
17128;DHT22;8679;50.842;4.322;2022-09-17T18:34:25;12.30;99.90
17128;DHT22;8679;50.842;4.322;2022-09-17T18:36:51;12.30;99.90
17128;DHT22;8679;50.842;4.322;2022-09-17T18:39:17;12.30;99.90
17128;DHT22;8679;50.842;4.322;2022-09-17T18:41:44;12.30;99.90
17128;DHT22;8679;50.842;4.322;2022-09-17T18:44:10;12.30;99.90
17128;DHT22;8679;50.842;4.322;2022-09-17T18:46:37;12.30;99.90
17128;DHT22;8679;50.842;4.322;2022-09-17T18:49:03;12.30;99.90
17128;DHT22;8679;50.842;4.322;2022-09-17T18:51:29;12.30;99.90
17128;DHT22;8679;50.842;4.322;2022-09-17T18:53:56;12.30;99.90
17128;DHT22;8679;50.842;4.322;2022-09-17T18:56:25;12.20;99.90
17128;DHT22;8679;50.842;4.322;2022-09-17T18:58:54;12.20;99.90
17128;DHT22;8679;50.842;4.322;2022-09-17T19:01:22;12.20;99.90
17128;DHT22;8679;50.842;4.322;2022-09-17T19:03:48;12.10;99.90
17128;DHT22;8679;50.842;4.322;2022-09-17T19:06:14;12.10;99.90
17128;DHT22;8679;50.842;4.322;2022-09-17T19:08:41;12.10;99.90
17128;DHT22;8679;50.842;4.322;2022-09-17T19:11:07;12.10;99.90
17128;DHT22;8679;50.842;4.322;2022-09-17T19:13:45;12.10;99.90
17128;DHT22;8679;50.842;4.322;2022-09-17T19:16:12;12.10;99.90
17128;DHT22;8679;50.842;4.322;2022-09-17T19:18:39;12.10;99.90
17128;DHT22;8679;50.842;4.322;2022-09-17T19:21:06;12.10;99.90
17128;DHT22;8679;50.842;4.322;2022-09-17T19:23:33;12.10;99.90
17128;DHT22;8679;50.842;4.322;2022-09-17T19:26:09;12.10;99.90